Toronto, South Dakota
Current Conditions -  °F | °C
As of 8:14 PM on Saturday 22 Nov 2014 (Local Time) from KCNB Reporting Station
Clear Clear  
Wind Chill: 33°   Ceiling: Unl
Heat Index: 41°   Visibility: 10mi
Dew Point: 34°   Wind: 16mph
Humidity: 76%   Direction: 210°SSW
Pressure: 29.42"   Gusts: 24mph
Location:  44.57°N, 96.64°W
Report Text: KCNB 230214Z AUTO 21014G21KT 10SM CLR 05/01 A2942 RMK AO2 T00520012
Loading
Personal Weather Stations






























Interactive Weather Map New forecast layout! Learn more

10-Day Weather Forecast

Advertisements
Track Severe Weather on mobile